sensor_id;sensor_type;location;lat;lon;timestamp;pressure;altitude;pressure_sealevel;temperature;humidity
34658;BME280;20865;43.312;27.152;2023-04-29T00:01:14;100643.16;;;15.33;38.06
34658;BME280;20865;43.312;27.152;2023-04-29T00:03:43;100641.95;;;15.30;37.99
34658;BME280;20865;43.312;27.152;2023-04-29T00:06:09;100632.00;;;15.21;38.15
34658;BME280;20865;43.312;27.152;2023-04-29T00:08:40;100646.59;;;15.26;38.00
34658;BME280;20865;43.312;27.152;2023-04-29T00:11:08;100637.13;;;15.28;37.97
34658;BME280;20865;43.312;27.152;2023-04-29T00:13:38;100632.39;;;15.22;38.10
34658;BME280;20865;43.312;27.152;2023-04-29T00:16:05;100635.91;;;15.24;38.00
34658;BME280;20865;43.312;27.152;2023-04-29T00:18:34;100635.70;;;15.29;37.74
34658;BME280;20865;43.312;27.152;2023-04-29T00:21:02;100644.37;;;15.25;37.80
34658;BME280;20865;43.312;27.152;2023-04-29T00:23:36;100642.21;;;15.23;37.78
34658;BME280;20865;43.312;27.152;2023-04-29T00:26:03;100636.09;;;15.20;37.86
34658;BME280;20865;43.312;27.152;2023-04-29T00:28:30;100639.08;;;15.24;37.95
34658;BME280;20865;43.312;27.152;2023-04-29T00:30:59;100644.59;;;15.21;37.91
34658;BME280;20865;43.312;27.152;2023-04-29T00:33:27;100640.86;;;15.23;37.88
34658;BME280;20865;43.312;27.152;2023-04-29T00:35:55;100637.38;;;15.21;37.94
34658;BME280;20865;43.312;27.152;2023-04-29T00:38:26;100632.00;;;15.21;37.97
34658;BME280;20865;43.312;27.152;2023-04-29T00:40:53;100637.17;;;15.26;37.79
34658;BME280;20865;43.312;27.152;2023-04-29T00:43:23;100629.92;;;15.28;37.70
34658;BME280;20865;43.312;27.152;2023-04-29T00:45:53;100630.18;;;15.22;37.76
34658;BME280;20865;43.312;27.152;2023-04-29T00:48:22;100635.95;;;15.33;37.68
34658;BME280;20865;43.312;27.152;2023-04-29T00:50:50;100641.55;;;15.39;37.54
34658;BME280;20865;43.312;27.152;2023-04-29T00:53:20;100632.53;;;15.30;37.40
34658;BME280;20865;43.312;27.152;2023-04-29T00:55:50;100639.81;;;15.28;37.48
34658;BME280;20865;43.312;27.152;2023-04-29T00:58:18;100640.34;;;15.36;37.44
34658;BME280;20865;43.312;27.152;2023-04-29T01:00:45;100635.30;;;15.38;37.35
34658;BME280;20865;43.312;27.152;2023-04-29T01:03:16;100628.91;;;15.31;37.58
34658;BME280;20865;43.312;27.152;2023-04-29T01:05:44;100636.78;;;15.35;37.36
34658;BME280;20865;43.312;27.152;2023-04-29T01:13:51;100639.39;;;15.27;37.50
34658;BME280;20865;43.312;27.152;2023-04-29T01:16:40;100635.91;;;15.35;37.21
34658;BME280;20865;43.312;27.152;2023-04-29T01:19:09;100632.73;;;15.25;37.46
34658;BME280;20865;43.312;27.152;2023-04-29T01:21:44;100629.57;;;15.25;37.26
34658;BME280;20865;43.312;27.152;2023-04-29T01:24:03;100636.04;;;15.21;37.36
34658;BME280;20865;43.312;27.152;2023-04-29T01:26:31;100633.87;;;15.19;37.12
34658;BME280;20865;43.312;27.152;2023-04-29T01:31:48;100630.26;;;15.10;37.11
34658;BME280;20865;43.312;27.152;2023-04-29T01:34:16;100628.02;;;15.20;36.72
34658;BME280;20865;43.312;27.152;2023-04-29T01:37:04;100624.53;;;15.28;36.60
34658;BME280;20865;43.312;27.152;2023-04-29T01:42:14;100625.93;;;15.27;36.42
34658;BME280;20865;43.312;27.152;2023-04-29T01:44:43;100615.56;;;14.76;37.06
34658;BME280;20865;43.312;27.152;2023-04-29T01:47:12;100615.05;;;14.45;37.82
34658;BME280;20865;43.312;27.152;2023-04-29T01:49:42;100612.34;;;14.35;38.10
34658;BME280;20865;43.312;27.152;2023-04-29T01:52:11;100617.36;;;14.32;38.10
34658;BME280;20865;43.312;27.152;2023-04-29T01:54:39;100616.48;;;14.32;38.11
34658;BME280;20865;43.312;27.152;2023-04-29T01:57:08;100628.53;;;14.33;37.98
34658;BME280;20865;43.312;27.152;2023-04-29T01:59:38;100629.80;;;14.35;38.09
34658;BME280;20865;43.312;27.152;2023-04-29T02:02:06;100634.03;;;14.30;38.21
34658;BME280;20865;43.312;27.152;2023-04-29T02:04:36;100632.38;;;14.26;38.35
34658;BME280;20865;43.312;27.152;2023-04-29T02:07:04;100629.88;;;14.33;38.27
34658;BME280;20865;43.312;27.152;2023-04-29T02:09:35;100633.48;;;14.32;38.29
34658;BME280;20865;43.312;27.152;2023-04-29T02:12:02;100633.56;;;14.30;38.31
34658;BME280;20865;43.312;27.152;2023-04-29T02:14:32;100623.91;;;14.37;38.20
34658;BME280;20865;43.312;27.152;2023-04-29T02:17:02;100633.87;;;14.45;37.95
34658;BME280;20865;43.312;27.152;2023-04-29T02:19:30;100634.34;;;14.44;38.02
34658;BME280;20865;43.312;27.152;2023-04-29T02:21:58;100630.91;;;14.41;38.01
34658;BME280;20865;43.312;27.152;2023-04-29T02:24:26;100628.19;;;14.30;38.05
34658;BME280;20865;43.312;27.152;2023-04-29T02:26:56;100632.26;;;14.29;38.04
34658;BME280;20865;43.312;27.152;2023-04-29T02:29:28;100624.67;;;14.28;37.86
34658;BME280;20865;43.312;27.152;2023-04-29T02:31:57;100625.14;;;14.28;38.03
34658;BME280;20865;43.312;27.152;2023-04-29T02:34:23;100630.59;;;14.26;38.01
34658;BME280;20865;43.312;27.152;2023-04-29T02:36:54;100626.41;;;14.19;38.09
34658;BME280;20865;43.312;27.152;2023-04-29T02:39:20;100623.28;;;14.18;38.13
34658;BME280;20865;43.312;27.152;2023-04-29T02:41:52;100622.97;;;14.16;38.08
34658;BME280;20865;43.312;27.152;2023-04-29T02:44:19;100622.33;;;14.09;38.21
34658;BME280;20865;43.312;27.152;2023-04-29T02:46:48;100623.97;;;13.90;38.08
34658;BME280;20865;43.312;27.152;2023-04-29T02:49:19;100621.52;;;13.95;38.10
34658;BME280;20865;43.312;27.152;2023-04-29T02:51:46;100616.02;;;13.87;38.24
34658;BME280;20865;43.312;27.152;2023-04-29T02:54:15;100618.89;;;13.82;38.33
34658;BME280;20865;43.312;27.152;2023-04-29T02:56:43;100620.16;;;13.83;38.34
34658;BME280;20865;43.312;27.152;2023-04-29T02:59:13;100625.53;;;13.83;38.35
34658;BME280;20865;43.312;27.152;2023-04-29T03:01:41;100621.22;;;13.79;38.36
34658;BME280;20865;43.312;27.152;2023-04-29T03:04:09;100622.14;;;13.67;38.30
34658;BME280;20865;43.312;27.152;2023-04-29T03:06:36;100619.89;;;13.68;38.45
34658;BME280;20865;43.312;27.152;2023-04-29T03:09:06;100619.82;;;13.69;38.40
34658;BME280;20865;43.312;27.152;2023-04-29T03:11:33;100621.34;;;13.76;38.30
34658;BME280;20865;43.312;27.152;2023-04-29T03:14:00;100620.81;;;13.55;38.54
34658;BME280;20865;43.312;27.152;2023-04-29T03:16:31;100621.46;;;13.50;38.96
34658;BME280;20865;43.312;27.152;2023-04-29T03:18:59;100626.28;;;13.52;38.84
34658;BME280;20865;43.312;27.152;2023-04-29T03:21:28;100623.49;;;13.43;39.13
34658;BME280;20865;43.312;27.152;2023-04-29T03:23:58;100628.28;;;13.47;39.27
34658;BME280;20865;43.312;27.152;2023-04-29T03:26:28;100626.36;;;13.50;39.38
34658;BME280;20865;43.312;27.152;2023-04-29T03:28:54;100629.84;;;13.52;39.52
34658;BME280;20865;43.312;27.152;2023-04-29T03:31:24;100635.17;;;13.54;39.57
34658;BME280;20865;43.312;27.152;2023-04-29T03:33:55;100633.25;;;13.57;39.59
34658;BME280;20865;43.312;27.152;2023-04-29T03:36:25;100629.91;;;13.63;39.54
34658;BME280;20865;43.312;27.152;2023-04-29T03:38:55;100628.45;;;13.66;39.71
34658;BME280;20865;43.312;27.152;2023-04-29T03:41:23;100634.59;;;13.69;39.68
34658;BME280;20865;43.312;27.152;2023-04-29T03:43:54;100635.42;;;13.71;39.81
34658;BME280;20865;43.312;27.152;2023-04-29T03:46:23;100640.02;;;13.79;39.71
34658;BME280;20865;43.312;27.152;2023-04-29T03:48:53;100634.29;;;13.77;39.82
34658;BME280;20865;43.312;27.152;2023-04-29T03:51:24;100638.17;;;13.81;39.85
34658;BME280;20865;43.312;27.152;2023-04-29T03:53:53;100641.53;;;13.87;39.85
34658;BME280;20865;43.312;27.152;2023-04-29T03:56:24;100640.95;;;13.90;39.90
34658;BME280;20865;43.312;27.152;2023-04-29T03:58:51;100637.20;;;13.94;40.01
34658;BME280;20865;43.312;27.152;2023-04-29T04:01:20;100637.09;;;13.97;39.98
34658;BME280;20865;43.312;27.152;2023-04-29T04:03:50;100634.77;;;14.00;39.92
34658;BME280;20865;43.312;27.152;2023-04-29T04:06:18;100637.22;;;14.06;39.75
34658;BME280;20865;43.312;27.152;2023-04-29T04:08:47;100643.74;;;14.11;39.77
34658;BME280;20865;43.312;27.152;2023-04-29T04:11:13;100640.47;;;14.14;39.79
34658;BME280;20865;43.312;27.152;2023-04-29T04:13:41;100638.81;;;14.22;39.83
34658;BME280;20865;43.312;27.152;2023-04-29T04:16:12;100644.03;;;14.26;39.86
34658;BME280;20865;43.312;27.152;2023-04-29T04:18:39;100640.32;;;14.29;39.98
34658;BME280;20865;43.312;27.152;2023-04-29T04:23:34;100641.11;;;14.43;39.72
34658;BME280;20865;43.312;27.152;2023-04-29T04:26:01;100647.36;;;14.43;39.89
34658;BME280;20865;43.312;27.152;2023-04-29T04:28:28;100632.31;;;14.51;39.79
34658;BME280;20865;43.312;27.152;2023-04-29T04:30:55;100632.20;;;14.54;40.11
34658;BME280;20865;43.312;27.152;2023-04-29T04:33:24;100638.47;;;14.65;39.94
34658;BME280;20865;43.312;27.152;2023-04-29T04:35:52;100632.89;;;14.69;40.09
34658;BME280;20865;43.312;27.152;2023-04-29T04:38:21;100638.77;;;14.79;39.86
34658;BME280;20865;43.312;27.152;2023-04-29T04:40:49;100634.41;;;14.87;39.69
34658;BME280;20865;43.312;27.152;2023-04-29T04:43:16;100630.51;;;14.94;39.45
34658;BME280;20865;43.312;27.152;2023-04-29T04:45:43;100630.77;;;14.98;39.40
34658;BME280;20865;43.312;27.152;2023-04-29T04:48:09;100638.98;;;15.05;39.65
34658;BME280;20865;43.312;27.152;2023-04-29T04:50:38;100631.47;;;15.03;40.23
34658;BME280;20865;43.312;27.152;2023-04-29T04:53:05;100633.22;;;15.14;40.15
34658;BME280;20865;43.312;27.152;2023-04-29T04:55:33;100632.73;;;15.25;39.95
34658;BME280;20865;43.312;27.152;2023-04-29T04:58:03;100633.14;;;15.26;39.92
34658;BME280;20865;43.312;27.152;2023-04-29T05:00:30;100638.59;;;15.35;39.96
34658;BME280;20865;43.312;27.152;2023-04-29T05:02:58;100636.42;;;15.43;40.10
34658;BME280;20865;43.312;27.152;2023-04-29T05:05:25;100633.32;;;15.62;40.19
34658;BME280;20865;43.312;27.152;2023-04-29T05:07:54;100627.00;;;15.92;40.32
34658;BME280;20865;43.312;27.152;2023-04-29T05:10:24;100637.19;;;16.24;40.31
34658;BME280;20865;43.312;27.152;2023-04-29T05:12:51;100630.78;;;16.54;39.91
34658;BME280;20865;43.312;27.152;2023-04-29T05:15:20;100628.66;;;16.88;38.85
34658;BME280;20865;43.312;27.152;2023-04-29T05:17:47;100636.11;;;17.18;38.52
34658;BME280;20865;43.312;27.152;2023-04-29T05:20:15;100636.48;;;17.45;38.30
34658;BME280;20865;43.312;27.152;2023-04-29T05:22:42;100637.98;;;18.17;36.51
34658;BME280;20865;43.312;27.152;2023-04-29T05:25:09;100646.14;;;18.55;36.34
34658;BME280;20865;43.312;27.152;2023-04-29T05:27:36;100643.78;;;18.49;36.19
34658;BME280;20865;43.312;27.152;2023-04-29T05:30:06;100637.22;;;18.53;35.34
34658;BME280;20865;43.312;27.152;2023-04-29T05:32:34;100640.23;;;18.72;35.60
34658;BME280;20865;43.312;27.152;2023-04-29T05:35:02;100634.61;;;18.84;35.62
34658;BME280;20865;43.312;27.152;2023-04-29T05:37:30;100637.54;;;18.95;35.10
34658;BME280;20865;43.312;27.152;2023-04-29T05:39:57;100634.71;;;19.19;34.95
34658;BME280;20865;43.312;27.152;2023-04-29T05:42:24;100637.92;;;19.26;35.04
34658;BME280;20865;43.312;27.152;2023-04-29T05:44:51;100637.64;;;19.38;34.50
34658;BME280;20865;43.312;27.152;2023-04-29T05:47:18;100635.73;;;19.54;35.07
34658;BME280;20865;43.312;27.152;2023-04-29T05:49:45;100635.78;;;19.83;33.07
34658;BME280;20865;43.312;27.152;2023-04-29T05:52:12;100635.09;;;19.93;34.09
34658;BME280;20865;43.312;27.152;2023-04-29T05:54:39;100635.47;;;20.16;33.29
34658;BME280;20865;43.312;27.152;2023-04-29T05:57:06;100637.36;;;20.35;31.92
34658;BME280;20865;43.312;27.152;2023-04-29T05:59:33;100642.00;;;20.55;31.66
34658;BME280;20865;43.312;27.152;2023-04-29T06:02:00;100632.80;;;20.77;31.17
34658;BME280;20865;43.312;27.152;2023-04-29T06:04:27;100638.38;;;21.08;29.95
34658;BME280;20865;43.312;27.152;2023-04-29T06:06:54;100635.28;;;21.27;30.66
34658;BME280;20865;43.312;27.152;2023-04-29T06:09:22;100636.31;;;21.52;30.15
34658;BME280;20865;43.312;27.152;2023-04-29T06:11:51;100642.28;;;21.70;30.42
34658;BME280;20865;43.312;27.152;2023-04-29T06:14:20;100633.52;;;21.84;29.70
34658;BME280;20865;43.312;27.152;2023-04-29T06:16:46;100631.59;;;21.92;30.09
34658;BME280;20865;43.312;27.152;2023-04-29T06:19:14;100633.96;;;22.09;30.33
34658;BME280;20865;43.312;27.152;2023-04-29T06:21:41;100627.52;;;22.18;28.73
34658;BME280;20865;43.312;27.152;2023-04-29T06:24:07;100629.69;;;22.31;29.43
34658;BME280;20865;43.312;27.152;2023-04-29T06:26:34;100627.16;;;22.41;27.84
34658;BME280;20865;43.312;27.152;2023-04-29T06:29:02;100626.22;;;22.47;28.44
34658;BME280;20865;43.312;27.152;2023-04-29T06:31:28;100624.03;;;22.34;28.39
34658;BME280;20865;43.312;27.152;2023-04-29T06:33:55;100623.07;;;22.35;27.98
34658;BME280;20865;43.312;27.152;2023-04-29T06:36:22;100619.42;;;22.47;28.49
34658;BME280;20865;43.312;27.152;2023-04-29T06:38:49;100630.27;;;22.60;29.00
34658;BME280;20865;43.312;27.152;2023-04-29T06:41:16;100626.91;;;22.86;27.80
34658;BME280;20865;43.312;27.152;2023-04-29T06:43:43;100615.86;;;23.00;28.72
34658;BME280;20865;43.312;27.152;2023-04-29T06:46:10;100613.90;;;23.08;27.45
34658;BME280;20865;43.312;27.152;2023-04-29T06:48:38;100613.90;;;23.02;27.92
34658;BME280;20865;43.312;27.152;2023-04-29T06:51:05;100610.47;;;24.20;27.33
34658;BME280;20865;43.312;27.152;2023-04-29T06:53:32;100607.03;;;24.61;26.46
34658;BME280;20865;43.312;27.152;2023-04-29T06:55:59;100601.57;;;24.61;26.61
34658;BME280;20865;43.312;27.152;2023-04-29T06:58:26;100605.76;;;24.77;25.14
34658;BME280;20865;43.312;27.152;2023-04-29T07:00:53;100609.25;;;24.73;25.37
34658;BME280;20865;43.312;27.152;2023-04-29T07:03:20;100605.64;;;24.99;25.29
34658;BME280;20865;43.312;27.152;2023-04-29T07:05:47;100601.91;;;25.11;25.02
34658;BME280;20865;43.312;27.152;2023-04-29T07:08:15;100605.50;;;25.33;24.96
34658;BME280;20865;43.312;27.152;2023-04-29T07:10:42;100601.68;;;25.45;25.06
34658;BME280;20865;43.312;27.152;2023-04-29T07:13:09;100605.31;;;25.25;25.22
34658;BME280;20865;43.312;27.152;2023-04-29T07:15:36;100607.19;;;25.60;24.52
34658;BME280;20865;43.312;27.152;2023-04-29T07:18:03;100612.69;;;25.55;22.72
34658;BME280;20865;43.312;27.152;2023-04-29T07:20:30;100608.19;;;25.75;23.26
34658;BME280;20865;43.312;27.152;2023-04-29T07:22:57;100602.72;;;25.75;23.69
34658;BME280;20865;43.312;27.152;2023-04-29T07:25:25;100601.62;;;25.72;23.26
34658;BME280;20865;43.312;27.152;2023-04-29T07:27:54;100598.62;;;25.59;24.04
34658;BME280;20865;43.312;27.152;2023-04-29T07:30:21;100594.10;;;25.64;21.70
34658;BME280;20865;43.312;27.152;2023-04-29T07:32:48;100586.97;;;25.52;19.97
34658;BME280;20865;43.312;27.152;2023-04-29T07:35:16;100597.13;;;25.40;19.63
34658;BME280;20865;43.312;27.152;2023-04-29T07:37:43;100595.59;;;25.47;20.46
34658;BME280;20865;43.312;27.152;2023-04-29T07:40:10;100588.48;;;25.50;19.40
34658;BME280;20865;43.312;27.152;2023-04-29T07:42:37;100585.30;;;25.60;19.92
34658;BME280;20865;43.312;27.152;2023-04-29T07:45:05;100590.68;;;25.72;19.84
34658;BME280;20865;43.312;27.152;2023-04-29T07:47:32;100590.09;;;25.68;19.90
34658;BME280;20865;43.312;27.152;2023-04-29T07:49:58;100590.63;;;25.62;20.57
34658;BME280;20865;43.312;27.152;2023-04-29T07:52:26;100590.77;;;25.60;19.48
34658;BME280;20865;43.312;27.152;2023-04-29T07:54:53;100584.83;;;25.55;19.98
34658;BME280;20865;43.312;27.152;2023-04-29T07:57:21;100584.56;;;25.58;19.83
34658;BME280;20865;43.312;27.152;2023-04-29T07:59:56;100580.92;;;25.79;19.44
34658;BME280;20865;43.312;27.152;2023-04-29T08:02:19;100583.58;;;25.75;19.83
34658;BME280;20865;43.312;27.152;2023-04-29T08:04:46;100580.34;;;25.90;19.89
34658;BME280;20865;43.312;27.152;2023-04-29T08:07:13;100588.39;;;25.98;19.97
34658;BME280;20865;43.312;27.152;2023-04-29T08:09:40;100579.13;;;26.14;20.97
34658;BME280;20865;43.312;27.152;2023-04-29T08:12:07;100569.58;;;26.24;19.11
34658;BME280;20865;43.312;27.152;2023-04-29T08:14:34;100572.63;;;26.30;19.36
34658;BME280;20865;43.312;27.152;2023-04-29T08:17:01;100564.16;;;26.43;19.15
34658;BME280;20865;43.312;27.152;2023-04-29T08:19:28;100569.45;;;26.50;19.36
34658;BME280;20865;43.312;27.152;2023-04-29T08:21:55;100565.98;;;26.48;18.59
34658;BME280;20865;43.312;27.152;2023-04-29T08:24:22;100564.64;;;26.33;18.77
34658;BME280;20865;43.312;27.152;2023-04-29T08:26:49;100552.37;;;26.27;18.71
34658;BME280;20865;43.312;27.152;2023-04-29T08:29:17;100558.91;;;26.21;18.87
34658;BME280;20865;43.312;27.152;2023-04-29T08:31:43;100556.91;;;26.23;19.08
34658;BME280;20865;43.312;27.152;2023-04-29T08:34:11;100543.58;;;26.24;18.86
34658;BME280;20865;43.312;27.152;2023-04-29T08:36:38;100546.25;;;26.39;18.72
34658;BME280;20865;43.312;27.152;2023-04-29T08:39:05;100551.67;;;26.45;18.87
34658;BME280;20865;43.312;27.152;2023-04-29T08:41:32;100545.46;;;26.43;19.29
34658;BME280;20865;43.312;27.152;2023-04-29T08:43:59;100538.31;;;26.51;19.11
34658;BME280;20865;43.312;27.152;2023-04-29T08:46:26;100539.11;;;26.57;20.07
34658;BME280;20865;43.312;27.152;2023-04-29T08:48:53;100535.78;;;26.83;19.56
34658;BME280;20865;43.312;27.152;2023-04-29T08:51:22;100530.02;;;26.96;19.08
34658;BME280;20865;43.312;27.152;2023-04-29T08:53:49;100532.66;;;27.01;18.88
34658;BME280;20865;43.312;27.152;2023-04-29T08:56:16;100530.70;;;27.07;18.61
34658;BME280;20865;43.312;27.152;2023-04-29T08:58:45;100523.81;;;27.13;18.50
34658;BME280;20865;43.312;27.152;2023-04-29T09:01:12;100524.95;;;27.20;18.39
34658;BME280;20865;43.312;27.152;2023-04-29T09:03:48;100521.67;;;27.30;19.24
34658;BME280;20865;43.312;27.152;2023-04-29T09:06:14;100521.18;;;27.02;19.39
34658;BME280;20865;43.312;27.152;2023-04-29T09:08:41;100515.30;;;27.16;19.66
34658;BME280;20865;43.312;27.152;2023-04-29T09:11:08;100513.80;;;27.31;20.28
34658;BME280;20865;43.312;27.152;2023-04-29T09:13:36;100516.24;;;27.35;18.73
34658;BME280;20865;43.312;27.152;2023-04-29T09:16:03;100502.56;;;27.05;19.43
34658;BME280;20865;43.312;27.152;2023-04-29T09:18:40;100503.12;;;27.09;19.54
34658;BME280;20865;43.312;27.152;2023-04-29T09:21:15;100499.58;;;26.89;19.56
34658;BME280;20865;43.312;27.152;2023-04-29T09:23:39;100497.36;;;26.79;19.77
34658;BME280;20865;43.312;27.152;2023-04-29T09:26:06;100493.94;;;26.91;20.27
34658;BME280;20865;43.312;27.152;2023-04-29T09:28:33;100489.77;;;26.87;19.09
34658;BME280;20865;43.312;27.152;2023-04-29T09:31:03;100489.30;;;26.68;19.11
34658;BME280;20865;43.312;27.152;2023-04-29T09:33:48;100488.28;;;26.69;19.43
34658;BME280;20865;43.312;27.152;2023-04-29T09:36:00;100473.34;;;26.77;19.21
34658;BME280;20865;43.312;27.152;2023-04-29T09:38:27;100472.13;;;26.75;19.99
34658;BME280;20865;43.312;27.152;2023-04-29T09:40:54;100476.46;;;26.68;19.64
34658;BME280;20865;43.312;27.152;2023-04-29T09:43:21;100474.25;;;26.91;19.35
34658;BME280;20865;43.312;27.152;2023-04-29T09:45:48;100474.92;;;26.89;19.72
34658;BME280;20865;43.312;27.152;2023-04-29T09:48:15;100468.82;;;26.95;19.67
34658;BME280;20865;43.312;27.152;2023-04-29T09:50:42;100461.63;;;26.94;19.19
34658;BME280;20865;43.312;27.152;2023-04-29T09:53:11;100453.84;;;26.99;19.66
34658;BME280;20865;43.312;27.152;2023-04-29T09:55:58;100447.17;;;26.78;20.73
34658;BME280;20865;43.312;27.152;2023-04-29T09:58:34;100453.45;;;26.98;20.22
34658;BME280;20865;43.312;27.152;2023-04-29T10:00:58;100443.33;;;27.08;19.32
34658;BME280;20865;43.312;27.152;2023-04-29T10:03:27;100444.33;;;27.27;19.27
34658;BME280;20865;43.312;27.152;2023-04-29T10:05:54;100440.31;;;27.35;19.53
34658;BME280;20865;43.312;27.152;2023-04-29T10:08:23;100444.20;;;27.19;20.18
34658;BME280;20865;43.312;27.152;2023-04-29T10:10:50;100455.16;;;27.42;19.12
34658;BME280;20865;43.312;27.152;2023-04-29T10:13:19;100438.86;;;27.41;19.34
34658;BME280;20865;43.312;27.152;2023-04-29T10:15:48;100441.83;;;27.47;19.25
34658;BME280;20865;43.312;27.152;2023-04-29T10:18:25;100439.21;;;27.55;20.05
34658;BME280;20865;43.312;27.152;2023-04-29T10:20:47;100431.88;;;27.46;19.23
34658;BME280;20865;43.312;27.152;2023-04-29T10:23:14;100432.48;;;27.40;19.12
34658;BME280;20865;43.312;27.152;2023-04-29T10:25:41;100417.55;;;27.25;19.67
34658;BME280;20865;43.312;27.152;2023-04-29T10:28:14;100420.84;;;27.15;20.26
34658;BME280;20865;43.312;27.152;2023-04-29T10:30:40;100422.96;;;26.45;20.48
34658;BME280;20865;43.312;27.152;2023-04-29T10:33:07;100417.06;;;26.20;21.03
34658;BME280;20865;43.312;27.152;2023-04-29T10:35:36;100417.52;;;26.54;21.26
34658;BME280;20865;43.312;27.152;2023-04-29T10:38:05;100413.06;;;26.77;21.14
34658;BME280;20865;43.312;27.152;2023-04-29T10:40:36;100413.34;;;26.74;20.06
34658;BME280;20865;43.312;27.152;2023-04-29T10:43:03;100418.34;;;26.98;20.17
34658;BME280;20865;43.312;27.152;2023-04-29T10:45:31;100409.87;;;27.15;20.63
34658;BME280;20865;43.312;27.152;2023-04-29T10:53:01;100414.16;;;26.70;19.77
34658;BME280;20865;43.312;27.152;2023-04-29T10:55:28;100419.12;;;26.71;20.10
34658;BME280;20865;43.312;27.152;2023-04-29T10:57:56;100414.95;;;26.67;20.69
34658;BME280;20865;43.312;27.152;2023-04-29T11:00:26;100410.95;;;26.61;20.53
34658;BME280;20865;43.312;27.152;2023-04-29T11:02:54;100412.27;;;26.71;20.50
34658;BME280;20865;43.312;27.152;2023-04-29T11:05:31;100407.48;;;26.92;21.20
34658;BME280;20865;43.312;27.152;2023-04-29T11:10:41;100395.80;;;27.37;20.47
34658;BME280;20865;43.312;27.152;2023-04-29T11:15:54;100399.91;;;27.37;19.24
34658;BME280;20865;43.312;27.152;2023-04-29T11:18:22;100400.70;;;27.20;19.76
34658;BME280;20865;43.312;27.152;2023-04-29T11:23:35;100389.66;;;27.16;20.19
34658;BME280;20865;43.312;27.152;2023-04-29T11:26:02;100387.39;;;27.25;19.69
34658;BME280;20865;43.312;27.152;2023-04-29T11:28:30;100383.06;;;27.22;20.73
34658;BME280;20865;43.312;27.152;2023-04-29T11:30:57;100384.39;;;27.08;20.79
34658;BME280;20865;43.312;27.152;2023-04-29T11:33:25;100386.30;;;26.98;21.05
34658;BME280;20865;43.312;27.152;2023-04-29T11:35:52;100379.88;;;27.03;20.98
34658;BME280;20865;43.312;27.152;2023-04-29T11:38:27;100372.06;;;27.32;21.44
34658;BME280;20865;43.312;27.152;2023-04-29T11:40:51;100378.02;;;27.41;19.89
34658;BME280;20865;43.312;27.152;2023-04-29T11:43:18;100369.61;;;27.57;20.30
34658;BME280;20865;43.312;27.152;2023-04-29T11:45:45;100375.85;;;27.63;19.82
34658;BME280;20865;43.312;27.152;2023-04-29T11:48:23;100369.80;;;27.73;19.98
34658;BME280;20865;43.312;27.152;2023-04-29T11:50:58;100368.83;;;27.64;19.55
34658;BME280;20865;43.312;27.152;2023-04-29T11:53:22;100364.42;;;27.53;19.69
34658;BME280;20865;43.312;27.152;2023-04-29T11:55:54;100357.34;;;26.96;19.96
34658;BME280;20865;43.312;27.152;2023-04-29T11:58:23;100358.52;;;27.07;19.49
34658;BME280;20865;43.312;27.152;2023-04-29T12:00:46;100355.81;;;27.35;20.10
34658;BME280;20865;43.312;27.152;2023-04-29T12:03:14;100354.83;;;27.40;19.45
34658;BME280;20865;43.312;27.152;2023-04-29T12:05:47;100343.59;;;27.47;19.98
34658;BME280;20865;43.312;27.152;2023-04-29T12:08:18;100339.50;;;27.33;19.38
34658;BME280;20865;43.312;27.152;2023-04-29T12:10:43;100343.09;;;27.47;19.43
34658;BME280;20865;43.312;27.152;2023-04-29T12:13:10;100342.27;;;26.96;19.17
34658;BME280;20865;43.312;27.152;2023-04-29T12:15:37;100332.25;;;27.14;20.27
34658;BME280;20865;43.312;27.152;2023-04-29T12:18:04;100326.25;;;27.28;20.76
34658;BME280;20865;43.312;27.152;2023-04-29T12:20:31;100323.12;;;27.23;19.76
34658;BME280;20865;43.312;27.152;2023-04-29T12:23:11;100325.74;;;27.29;19.48
34658;BME280;20865;43.312;27.152;2023-04-29T12:25:38;100329.64;;;27.26;19.12
34658;BME280;20865;43.312;27.152;2023-04-29T12:28:12;100328.27;;;26.99;19.57
34658;BME280;20865;43.312;27.152;2023-04-29T12:30:40;100329.39;;;26.69;19.16
34658;BME280;20865;43.312;27.152;2023-04-29T12:33:07;100325.31;;;26.96;20.37
34658;BME280;20865;43.312;27.152;2023-04-29T12:35:34;100323.95;;;26.49;19.87
34658;BME280;20865;43.312;27.152;2023-04-29T12:38:01;100313.03;;;26.30;19.22
34658;BME280;20865;43.312;27.152;2023-04-29T12:40:28;100310.31;;;26.53;19.90
34658;BME280;20865;43.312;27.152;2023-04-29T12:42:55;100309.48;;;26.33;19.20
34658;BME280;20865;43.312;27.152;2023-04-29T12:45:25;100304.09;;;26.28;18.72
34658;BME280;20865;43.312;27.152;2023-04-29T12:47:52;100310.77;;;26.49;19.90
34658;BME280;20865;43.312;27.152;2023-04-29T12:50:26;100300.69;;;26.40;20.06
34658;BME280;20865;43.312;27.152;2023-04-29T12:52:49;100300.16;;;25.78;20.98
34658;BME280;20865;43.312;27.152;2023-04-29T12:55:16;100292.91;;;25.92;19.99
34658;BME280;20865;43.312;27.152;2023-04-29T12:57:43;100297.98;;;26.10;20.92
34658;BME280;20865;43.312;27.152;2023-04-29T13:00:11;100286.70;;;26.09;20.65
34658;BME280;20865;43.312;27.152;2023-04-29T13:02:38;100292.28;;;26.18;21.14
34658;BME280;20865;43.312;27.152;2023-04-29T13:05:05;100286.64;;;25.96;21.27
34658;BME280;20865;43.312;27.152;2023-04-29T13:07:33;100280.55;;;26.11;21.10
34658;BME280;20865;43.312;27.152;2023-04-29T13:10:00;100279.17;;;26.21;21.03
34658;BME280;20865;43.312;27.152;2023-04-29T13:12:27;100261.52;;;26.29;21.33